createdAt,value
2023-01-29T00:02:07.419Z,14.73
2023-01-29T00:04:35.544Z,15.05
2023-01-29T00:07:03.650Z,16.40
2023-01-29T00:09:32.262Z,15.88
2023-01-29T00:12:01.667Z,15.48
2023-01-29T00:14:29.675Z,16.58
2023-01-29T00:16:57.714Z,17.08
2023-01-29T00:19:25.672Z,15.45
2023-01-29T00:21:53.739Z,15.30
2023-01-29T00:24:22.580Z,15.57
2023-01-29T00:26:51.087Z,16.45
2023-01-29T00:29:21.900Z,15.48
2023-01-29T00:31:50.162Z,16.95
2023-01-29T00:34:18.427Z,17.90
2023-01-29T00:36:46.545Z,17.15
2023-01-29T00:39:14.570Z,16.83
2023-01-29T00:42:00.045Z,16.17
2023-01-29T00:44:46.769Z,17.20
2023-01-29T00:47:34.401Z,16.67
2023-01-29T00:50:03.260Z,17.60
2023-01-29T00:52:31.573Z,16.13
2023-01-29T00:55:01.343Z,17.15
2023-01-29T00:57:31.466Z,17.55
2023-01-29T01:00:01.158Z,16.27
2023-01-29T01:02:47.159Z,15.55
2023-01-29T01:05:20.034Z,17.52
2023-01-29T01:07:49.025Z,16.67
2023-01-29T01:10:22.282Z,16.33
2023-01-29T01:12:54.276Z,15.75
2023-01-29T01:15:25.320Z,16.98
2023-01-29T01:17:55.120Z,17.50
2023-01-29T01:20:23.396Z,18.00
2023-01-29T01:22:51.617Z,17.65
2023-01-29T01:25:19.880Z,18.80
2023-01-29T01:27:47.897Z,18.15
2023-01-29T01:30:17.638Z,18.05
2023-01-29T01:32:47.374Z,17.90
2023-01-29T01:35:15.760Z,18.40
2023-01-29T01:37:44.102Z,18.10
2023-01-29T01:40:18.042Z,18.77
2023-01-29T01:42:48.853Z,18.58
2023-01-29T01:45:21.504Z,18.45
2023-01-29T01:47:53.792Z,19.75
2023-01-29T01:50:28.255Z,20.00
2023-01-29T01:53:00.942Z,19.95
2023-01-29T01:55:31.276Z,19.75
2023-01-29T01:58:07.570Z,20.73
2023-01-29T02:00:35.730Z,19.90
2023-01-29T02:03:23.321Z,21.33
2023-01-29T02:06:09.719Z,21.60
2023-01-29T02:09:04.028Z,20.63
2023-01-29T02:11:32.289Z,21.45
2023-01-29T02:14:00.763Z,22.42
2023-01-29T02:16:28.752Z,23.48
2023-01-29T02:18:58.290Z,23.75
2023-01-29T02:21:44.010Z,22.35
2023-01-29T02:24:44.524Z,22.38
2023-01-29T02:27:16.603Z,21.77
2023-01-29T02:29:57.861Z,22.23
2023-01-29T02:32:32.508Z,23.35
2023-01-29T02:35:29.615Z,23.92
2023-01-29T02:38:10.762Z,22.48
2023-01-29T02:40:44.902Z,24.80
2023-01-29T02:43:25.244Z,22.92
2023-01-29T02:46:02.928Z,24.58
2023-01-29T02:48:40.767Z,24.08
2023-01-29T02:51:14.910Z,23.27
2023-01-29T02:53:50.730Z,22.63
2023-01-29T02:56:22.727Z,23.48
2023-01-29T02:58:55.484Z,22.42
2023-01-29T03:01:31.288Z,23.35
2023-01-29T03:04:04.412Z,22.25
2023-01-29T03:06:37.135Z,22.60
2023-01-29T03:09:08.962Z,21.52
2023-01-29T03:11:41.458Z,21.35
2023-01-29T03:14:14.262Z,20.60
2023-01-29T03:16:48.671Z,20.65
2023-01-29T03:19:20.372Z,20.60
2023-01-29T03:21:59.144Z,21.90
2023-01-29T03:24:53.066Z,20.30
2023-01-29T03:27:44.500Z,20.88
2023-01-29T03:30:35.056Z,21.42
2023-01-29T03:33:09.558Z,20.98
2023-01-29T03:35:41.195Z,21.38
2023-01-29T03:38:12.238Z,21.40
2023-01-29T03:40:48.765Z,20.13
2023-01-29T03:43:27.500Z,20.30
2023-01-29T03:46:04.784Z,19.52
2023-01-29T03:48:37.625Z,19.75
2023-01-29T03:51:17.598Z,20.58
2023-01-29T03:53:51.513Z,20.20
2023-01-29T03:56:34.192Z,21.20
2023-01-29T03:59:11.104Z,19.77
2023-01-29T04:01:47.597Z,20.38
2023-01-29T04:04:22.038Z,20.70
2023-01-29T04:06:53.167Z,19.23
2023-01-29T04:09:24.971Z,19.38
2023-01-29T04:11:58.276Z,18.70
2023-01-29T04:14:26.845Z,18.90
2023-01-29T04:16:58.820Z,20.23
2023-01-29T04:19:29.263Z,19.73
2023-01-29T04:22:04.919Z,17.83
2023-01-29T04:24:33.599Z,19.27
2023-01-29T04:27:12.258Z,18.77
2023-01-29T04:30:05.685Z,19.13
2023-01-29T04:32:42.257Z,17.15
2023-01-29T04:35:22.448Z,19.40
2023-01-29T04:38:02.765Z,18.13
2023-01-29T04:40:37.638Z,17.73
2023-01-29T04:43:10.044Z,18.33
2023-01-29T04:48:22.464Z,18.95
2023-01-29T04:51:07.531Z,18.52
2023-01-29T04:53:43.702Z,18.98
2023-01-29T04:56:20.194Z,18.63
2023-01-29T04:58:53.294Z,17.55
2023-01-29T05:01:25.806Z,18.67
2023-01-29T05:03:55.627Z,19.48
2023-01-29T05:06:26.492Z,18.45
2023-01-29T05:08:55.806Z,18.40
2023-01-29T05:11:25.888Z,19.23
2023-01-29T05:13:54.478Z,18.45
2023-01-29T05:16:26.462Z,17.63
2023-01-29T05:18:55.245Z,19.75
2023-01-29T05:21:25.590Z,19.40
2023-01-29T05:24:11.640Z,18.67
2023-01-29T05:26:57.225Z,19.30
2023-01-29T05:29:25.598Z,20.33
2023-01-29T05:31:53.689Z,18.65
2023-01-29T05:34:21.828Z,20.13
2023-01-29T05:36:51.257Z,19.75
2023-01-29T05:39:19.356Z,18.95
2023-01-29T05:41:47.333Z,19.33
2023-01-29T05:44:15.469Z,20.70
2023-01-29T05:46:44.025Z,20.20
2023-01-29T05:49:12.132Z,20.48
2023-01-29T05:51:40.265Z,19.00
2023-01-29T05:54:11.849Z,20.65
2023-01-29T05:56:39.863Z,20.48
2023-01-29T05:59:07.860Z,20.58
2023-01-29T06:01:35.927Z,20.83
2023-01-29T06:04:03.975Z,21.65
2023-01-29T06:06:32.312Z,19.42
2023-01-29T06:09:00.338Z,20.30
2023-01-29T06:11:29.699Z,20.77
2023-01-29T06:13:57.683Z,21.48
2023-01-29T06:16:25.638Z,19.85
2023-01-29T06:18:53.663Z,20.45
2023-01-29T06:21:21.623Z,21.10
2023-01-29T06:23:49.746Z,21.13
2023-01-29T06:26:17.725Z,20.92
2023-01-29T06:28:50.018Z,20.33
2023-01-29T06:31:37.717Z,20.40
2023-01-29T06:34:06.217Z,20.55
2023-01-29T06:36:34.339Z,20.38
2023-01-29T06:39:02.347Z,21.00
2023-01-29T06:41:30.359Z,20.27
2023-01-29T06:43:59.709Z,20.60
2023-01-29T06:46:27.718Z,20.60
2023-01-29T06:48:55.717Z,21.45
2023-01-29T06:51:23.736Z,20.17
2023-01-29T06:53:51.749Z,20.60
2023-01-29T06:56:19.809Z,20.65
2023-01-29T06:58:47.807Z,20.67
2023-01-29T07:01:33.332Z,20.30
2023-01-29T07:04:03.039Z,20.38
2023-01-29T07:06:31.931Z,20.38
2023-01-29T07:09:00.017Z,21.48
2023-01-29T07:11:28.115Z,20.77
2023-01-29T07:13:56.193Z,21.67
2023-01-29T07:16:26.416Z,20.75
2023-01-29T07:18:54.653Z,21.10
2023-01-29T07:21:22.675Z,21.52
2023-01-29T07:23:50.725Z,21.65
2023-01-29T07:26:18.743Z,21.58
2023-01-29T07:28:46.749Z,21.35
2023-01-29T07:31:16.074Z,20.80
2023-01-29T07:33:46.268Z,21.20
2023-01-29T07:36:15.595Z,22.27
2023-01-29T07:38:43.540Z,21.65
2023-01-29T07:41:12.744Z,22.77
2023-01-29T07:43:40.907Z,22.33
2023-01-29T07:46:09.270Z,22.33
2023-01-29T07:48:37.300Z,22.52
2023-01-29T07:51:07.172Z,23.48
2023-01-29T07:53:35.872Z,23.00
2023-01-29T07:56:04.213Z,23.15
2023-01-29T07:58:32.429Z,22.65
2023-01-29T08:01:00.760Z,22.20
2023-01-29T08:03:28.876Z,22.50
2023-01-29T08:05:58.567Z,23.02
2023-01-29T08:08:28.026Z,23.15
2023-01-29T08:10:56.033Z,22.27
2023-01-29T08:13:24.027Z,23.95
2023-01-29T08:15:52.022Z,23.08
2023-01-29T08:18:20.056Z,23.58
2023-01-29T08:20:48.087Z,22.48
2023-01-29T08:23:17.520Z,23.73
2023-01-29T08:25:46.931Z,23.90
2023-01-29T08:28:14.998Z,23.33
2023-01-29T08:30:44.163Z,23.52
2023-01-29T08:33:12.169Z,24.25
2023-01-29T08:35:41.221Z,23.98
2023-01-29T08:38:10.477Z,24.10
2023-01-29T08:40:38.503Z,23.88
2023-01-29T08:43:09.765Z,23.00
2023-01-29T08:45:39.482Z,23.73
2023-01-29T08:48:08.272Z,24.67
2023-01-29T08:50:36.435Z,24.95
2023-01-29T08:53:07.691Z,22.58
2023-01-29T08:55:37.776Z,24.58
2023-01-29T08:58:07.920Z,26.17
2023-01-29T09:00:36.482Z,25.30
2023-01-29T09:03:04.726Z,25.35
2023-01-29T09:05:32.823Z,25.35
2023-01-29T09:08:01.128Z,27.15
2023-01-29T09:10:29.188Z,26.58
2023-01-29T09:12:57.171Z,25.70
2023-01-29T09:15:26.655Z,26.77
2023-01-29T09:17:54.732Z,27.05
2023-01-29T09:20:23.240Z,27.20
2023-01-29T09:22:53.595Z,24.25
2023-01-29T09:25:21.702Z,27.70
2023-01-29T09:27:49.770Z,26.80
2023-01-29T09:30:18.909Z,26.30
2023-01-29T09:32:55.503Z,25.92
2023-01-29T09:35:23.913Z,26.55
2023-01-29T09:37:52.789Z,27.20
2023-01-29T09:40:27.048Z,27.58
2023-01-29T09:43:01.190Z,26.95
2023-01-29T09:45:30.397Z,27.27
2023-01-29T09:48:01.800Z,26.90
2023-01-29T09:50:39.812Z,28.17
2023-01-29T09:53:17.578Z,28.38
2023-01-29T09:55:50.622Z,29.40
2023-01-29T09:58:25.576Z,26.27
2023-01-29T10:01:03.207Z,28.17
2023-01-29T10:04:08.224Z,27.42
2023-01-29T10:06:50.887Z,26.95
2023-01-29T10:09:44.748Z,27.25
2023-01-29T10:12:30.868Z,28.58
2023-01-29T10:15:08.852Z,26.80
2023-01-29T10:17:52.034Z,28.25
2023-01-29T10:20:50.283Z,28.48
2023-01-29T10:23:25.333Z,29.20
2023-01-29T10:25:54.793Z,28.05
2023-01-29T10:28:29.090Z,27.60
2023-01-29T10:31:01.488Z,28.98
2023-01-29T10:33:49.264Z,28.85
2023-01-29T10:36:35.692Z,29.75
2023-01-29T10:39:03.944Z,28.23
2023-01-29T10:41:54.505Z,27.98
2023-01-29T10:44:31.699Z,28.13
2023-01-29T10:47:18.421Z,28.70
2023-01-29T10:50:18.720Z,28.98
2023-01-29T10:53:03.111Z,27.27
2023-01-29T10:55:42.926Z,30.05
2023-01-29T10:58:21.215Z,28.63
2023-01-29T11:00:49.638Z,29.17
2023-01-29T11:03:27.856Z,28.80
2023-01-29T11:06:03.988Z,29.13
2023-01-29T11:08:39.267Z,29.15
2023-01-29T11:11:12.661Z,29.80
2023-01-29T11:13:44.651Z,29.30
2023-01-29T11:16:13.222Z,28.13
2023-01-29T11:18:56.349Z,28.95
2023-01-29T11:21:25.769Z,27.80
2023-01-29T11:24:08.403Z,29.17
2023-01-29T11:26:41.155Z,27.08
2023-01-29T11:29:33.789Z,28.77
2023-01-29T11:32:04.441Z,28.45
2023-01-29T11:34:32.739Z,27.42
2023-01-29T11:37:02.156Z,29.75
2023-01-29T11:39:32.845Z,30.70
2023-01-29T11:42:03.776Z,28.75
2023-01-29T11:44:34.603Z,29.23
2023-01-29T11:47:14.250Z,29.35
2023-01-29T11:49:47.579Z,29.13
2023-01-29T11:52:19.013Z,28.83
2023-01-29T11:54:52.416Z,30.48
2023-01-29T11:57:27.767Z,26.88
2023-01-29T11:59:59.283Z,27.88
2023-01-29T12:02:32.979Z,28.97
2023-01-29T12:05:05.947Z,27.65
2023-01-29T12:07:35.042Z,27.67
2023-01-29T12:10:04.765Z,28.15
2023-01-29T12:12:39.286Z,27.60
2023-01-29T12:15:19.596Z,27.75
2023-01-29T12:18:04.423Z,26.02
2023-01-29T12:20:38.744Z,26.85
2023-01-29T12:23:23.308Z,27.15
2023-01-29T12:26:00.446Z,26.58
2023-01-29T12:28:40.609Z,27.30
2023-01-29T12:31:17.739Z,25.90
2023-01-29T12:33:55.328Z,25.48
2023-01-29T12:36:27.887Z,24.20
2023-01-29T12:38:56.658Z,25.58
2023-01-29T12:41:33.858Z,24.98
2023-01-29T12:44:07.703Z,25.15
2023-01-29T12:46:41.774Z,25.25
2023-01-29T12:49:17.073Z,23.67
2023-01-29T12:51:56.899Z,25.52
2023-01-29T12:54:34.783Z,25.02
2023-01-29T12:57:10.582Z,25.55
2023-01-29T12:59:44.424Z,24.92
2023-01-29T13:02:23.888Z,24.73
2023-01-29T13:04:58.337Z,24.75
2023-01-29T13:07:31.707Z,23.58
2023-01-29T13:10:08.643Z,25.05
2023-01-29T13:12:41.280Z,20.63
2023-01-29T13:15:22.885Z,23.92
2023-01-29T13:17:54.204Z,22.50
2023-01-29T13:20:29.798Z,22.85
2023-01-29T13:23:04.124Z,23.15
2023-01-29T13:25:32.462Z,22.60
2023-01-29T13:28:02.208Z,24.52
2023-01-29T13:30:32.332Z,23.90
2023-01-29T13:33:10.506Z,23.88
2023-01-29T13:35:42.726Z,21.85
2023-01-29T13:38:25.992Z,30.17
2023-01-29T13:40:58.225Z,25.00
2023-01-29T13:43:38.784Z,23.50
2023-01-29T13:46:10.469Z,24.80
2023-01-29T13:48:44.473Z,38.17
2023-01-29T13:51:17.807Z,22.88
2023-01-29T13:53:55.359Z,22.15
2023-01-29T13:56:47.852Z,22.65
2023-01-29T13:59:49.308Z,25.05
2023-01-29T14:02:30.297Z,43.17
2023-01-29T14:05:35.916Z,22.33
2023-01-29T14:08:07.068Z,20.88
2023-01-29T14:10:36.751Z,23.58
2023-01-29T14:13:35.267Z,22.33
2023-01-29T14:16:29.929Z,21.65
2023-01-29T14:19:01.834Z,22.15
2023-01-29T14:21:32.505Z,21.35
2023-01-29T14:24:09.640Z,21.63
2023-01-29T14:26:45.486Z,24.13
2023-01-29T14:29:32.473Z,19.92
2023-01-29T14:32:19.451Z,22.60
2023-01-29T14:34:51.231Z,21.55
2023-01-29T14:37:27.631Z,21.70
2023-01-29T14:39:58.910Z,20.88
2023-01-29T14:42:30.583Z,21.90
2023-01-29T14:45:01.585Z,21.20
2023-01-29T14:48:09.615Z,20.98
2023-01-29T14:50:49.453Z,20.77
2023-01-29T14:53:29.335Z,20.92
2023-01-29T14:56:02.707Z,21.42
2023-01-29T14:58:39.219Z,20.20
2023-01-29T15:01:17.060Z,20.48
2023-01-29T15:03:48.909Z,20.35
2023-01-29T15:06:31.643Z,21.15
2023-01-29T15:09:06.875Z,20.65
2023-01-29T15:11:41.028Z,25.45
2023-01-29T15:14:24.220Z,23.13
2023-01-29T15:17:30.278Z,24.23
2023-01-29T15:19:58.469Z,24.38
2023-01-29T15:22:30.526Z,23.73
2023-01-29T15:25:07.763Z,24.02
2023-01-29T15:27:36.123Z,24.17
2023-01-29T15:30:08.041Z,26.20
2023-01-29T15:32:38.425Z,26.65
2023-01-29T15:35:11.098Z,26.42
2023-01-29T15:37:41.458Z,23.88
2023-01-29T15:40:17.742Z,24.85
2023-01-29T15:42:48.684Z,24.50
2023-01-29T15:45:25.744Z,24.05
2023-01-29T15:47:56.352Z,26.63
2023-01-29T15:50:24.663Z,26.65
2023-01-29T15:52:55.769Z,25.80
2023-01-29T15:55:25.509Z,24.83
2023-01-29T15:57:54.151Z,26.15
2023-01-29T16:00:25.101Z,23.95
2023-01-29T16:02:54.704Z,29.77
2023-01-29T16:05:26.574Z,25.75
2023-01-29T16:07:58.017Z,26.48
2023-01-29T16:10:29.336Z,27.10
2023-01-29T16:12:58.508Z,26.42
2023-01-29T16:15:33.720Z,24.90
2023-01-29T16:18:22.402Z,26.50
2023-01-29T16:20:53.525Z,24.85
2023-01-29T16:23:27.567Z,32.55
2023-01-29T16:25:57.835Z,25.30
2023-01-29T16:28:25.897Z,26.92
2023-01-29T16:30:58.063Z,26.13
2023-01-29T16:33:34.138Z,26.88
2023-01-29T16:36:05.504Z,25.88
2023-01-29T16:38:37.132Z,25.75
2023-01-29T16:41:15.637Z,26.98
2023-01-29T16:43:51.893Z,26.80
2023-01-29T16:46:35.335Z,26.13
2023-01-29T16:49:04.034Z,26.98
2023-01-29T16:51:37.925Z,25.33
2023-01-29T16:54:17.360Z,24.42
2023-01-29T16:56:46.710Z,25.67
2023-01-29T16:59:21.342Z,24.65
2023-01-29T17:01:50.454Z,27.10
2023-01-29T17:04:19.991Z,25.30
2023-01-29T17:06:50.377Z,25.38
2023-01-29T17:09:25.523Z,27.70
2023-01-29T17:11:56.991Z,28.23
2023-01-29T17:14:25.524Z,28.13
2023-01-29T17:16:56.829Z,25.63
2023-01-29T17:19:25.928Z,28.30
2023-01-29T17:21:54.317Z,29.25
2023-01-29T17:24:23.795Z,27.88
2023-01-29T17:26:52.277Z,26.38
2023-01-29T17:29:21.963Z,28.48
2023-01-29T17:31:50.017Z,27.00
2023-01-29T17:34:18.665Z,27.33
2023-01-29T17:36:47.089Z,33.33
2023-01-29T17:39:19.052Z,28.08
2023-01-29T17:41:51.447Z,28.48
2023-01-29T17:46:47.507Z,26.42
2023-01-29T17:49:25.585Z,25.67
2023-01-29T17:51:54.913Z,27.13
2023-01-29T17:54:24.119Z,27.45
2023-01-29T17:56:54.544Z,28.65
2023-01-29T17:59:24.094Z,28.88
2023-01-29T18:01:53.261Z,28.05
2023-01-29T18:04:21.394Z,28.80
2023-01-29T18:06:51.325Z,31.63
2023-01-29T18:09:21.349Z,30.40
2023-01-29T18:11:50.725Z,28.08
2023-01-29T18:14:20.183Z,30.83
2023-01-29T18:16:48.209Z,27.80
2023-01-29T18:19:21.733Z,30.30
2023-01-29T18:21:50.407Z,28.88
2023-01-29T18:24:20.402Z,29.73
2023-01-29T18:26:48.984Z,30.92
2023-01-29T18:29:17.123Z,31.42
2023-01-29T18:31:49.420Z,30.15
2023-01-29T18:36:47.690Z,28.25
2023-01-29T18:39:15.951Z,31.25
2023-01-29T18:41:44.042Z,29.83
2023-01-29T18:44:12.489Z,28.67
2023-01-29T18:46:40.464Z,29.77
2023-01-29T18:49:10.756Z,28.65
2023-01-29T18:51:38.785Z,31.45
2023-01-29T18:54:06.891Z,31.27
2023-01-29T18:56:34.883Z,32.53
2023-01-29T18:59:05.661Z,31.35
2023-01-29T19:01:34.761Z,30.58
2023-01-29T19:04:03.932Z,31.45
2023-01-29T19:06:39.879Z,30.98
2023-01-29T19:09:07.964Z,30.67
2023-01-29T19:11:35.967Z,34.35
2023-01-29T19:14:03.996Z,31.38
2023-01-29T19:16:31.970Z,35.08
2023-01-29T19:19:00.007Z,35.17
2023-01-29T19:21:28.449Z,29.98
2023-01-29T19:23:58.000Z,33.88
2023-01-29T19:26:27.169Z,33.17
2023-01-29T19:28:55.246Z,32.60
2023-01-29T19:31:23.246Z,33.03
2023-01-29T19:33:51.251Z,35.15
2023-01-29T19:36:19.453Z,33.13
2023-01-29T19:38:49.022Z,33.53
2023-01-29T19:41:18.424Z,35.70
2023-01-29T19:43:48.185Z,35.42
2023-01-29T19:46:16.358Z,38.97
2023-01-29T19:48:44.438Z,37.40
2023-01-29T19:51:13.050Z,34.60
2023-01-29T19:53:44.870Z,39.35
2023-01-29T19:56:15.365Z,38.28
2023-01-29T19:58:44.850Z,40.20
2023-01-29T20:01:16.325Z,40.20
2023-01-29T20:03:46.492Z,43.23
2023-01-29T20:06:16.798Z,37.35
2023-01-29T20:08:46.550Z,39.97
2023-01-29T20:11:14.662Z,38.83
2023-01-29T20:13:44.556Z,46.83
2023-01-29T20:16:12.647Z,40.95
2023-01-29T20:18:40.698Z,45.85
2023-01-29T20:21:10.476Z,39.20
2023-01-29T20:23:39.812Z,45.88
2023-01-29T20:26:11.222Z,42.63
2023-01-29T20:28:39.659Z,45.10
2023-01-29T20:31:10.190Z,49.13
2023-01-29T20:33:39.599Z,45.50
2023-01-29T20:36:10.039Z,43.35
2023-01-29T20:38:38.097Z,71.05
2023-01-29T20:41:07.646Z,47.42
2023-01-29T20:43:36.084Z,51.28
2023-01-29T20:46:05.049Z,50.15
2023-01-29T20:48:34.703Z,46.40
2023-01-29T20:51:08.028Z,44.78
2023-01-29T20:53:36.876Z,48.85
2023-01-29T20:56:05.477Z,46.03
2023-01-29T20:58:33.641Z,43.45
2023-01-29T21:01:01.881Z,44.65
2023-01-29T21:03:29.899Z,48.58
2023-01-29T21:06:00.139Z,49.40
2023-01-29T21:08:28.147Z,49.22
2023-01-29T21:10:56.127Z,54.30
2023-01-29T21:13:24.119Z,50.40
2023-01-29T21:15:52.342Z,47.47
2023-01-29T21:18:20.354Z,42.78
2023-01-29T21:20:50.599Z,59.55
2023-01-29T21:23:20.345Z,51.40
2023-01-29T21:25:48.510Z,47.15
2023-01-29T21:28:16.912Z,36.83
2023-01-29T21:30:44.919Z,34.42
2023-01-29T21:33:13.030Z,36.78
2023-01-29T21:35:41.043Z,36.88
2023-01-29T21:38:09.303Z,38.65
2023-01-29T21:40:38.753Z,40.38
2023-01-29T21:43:11.489Z,38.30
2023-01-29T21:45:40.462Z,33.92
2023-01-29T21:48:08.526Z,36.17
2023-01-29T21:50:36.902Z,36.92
2023-01-29T21:53:05.128Z,31.70
2023-01-29T21:55:33.594Z,31.55
2023-01-29T21:58:04.271Z,33.58
2023-01-29T22:00:32.383Z,31.23
2023-01-29T22:03:00.592Z,30.35
2023-01-29T22:05:29.287Z,32.70
2023-01-29T22:07:57.337Z,33.70
2023-01-29T22:10:25.783Z,34.72
2023-01-29T22:12:54.209Z,32.13
2023-01-29T22:15:24.453Z,32.17
2023-01-29T22:17:52.557Z,29.13
2023-01-29T22:20:21.111Z,31.30
2023-01-29T22:22:49.374Z,31.08
2023-01-29T22:25:20.075Z,30.33
2023-01-29T22:27:48.167Z,30.33
2023-01-29T22:30:16.843Z,30.95
2023-01-29T22:32:46.485Z,28.33
2023-01-29T22:35:14.581Z,28.60
2023-01-29T22:37:42.599Z,26.45
2023-01-29T22:40:11.558Z,26.77
2023-01-29T22:42:39.555Z,27.40
2023-01-29T22:45:09.127Z,28.35
2023-01-29T22:47:37.206Z,30.70
2023-01-29T22:50:07.987Z,28.92
2023-01-29T22:52:39.393Z,29.10
2023-01-29T22:55:09.827Z,26.58
2023-01-29T22:57:38.323Z,27.42
2023-01-29T23:00:09.087Z,24.60
2023-01-29T23:02:37.437Z,24.42
2023-01-29T23:05:08.050Z,23.30
2023-01-29T23:07:36.242Z,24.48
2023-01-29T23:10:04.470Z,22.27
2023-01-29T23:12:32.550Z,24.95
2023-01-29T23:15:00.635Z,25.08
2023-01-29T23:17:28.696Z,23.30
2023-01-29T23:19:56.690Z,26.17
2023-01-29T23:22:26.561Z,24.27
2023-01-29T23:24:54.675Z,25.88
2023-01-29T23:27:21.713Z,21.65
2023-01-29T23:29:50.313Z,24.05
2023-01-29T23:32:21.451Z,24.10
2023-01-29T23:34:49.576Z,24.70
2023-01-29T23:37:17.662Z,23.58
2023-01-29T23:39:47.054Z,25.38
2023-01-29T23:42:15.073Z,24.83
2023-01-29T23:44:43.229Z,23.70
2023-01-29T23:47:11.638Z,23.60
2023-01-29T23:49:39.669Z,26.20
2023-01-29T23:52:07.778Z,29.00
2023-01-29T23:54:35.791Z,25.15
2023-01-29T23:57:05.306Z,24.50
2023-01-29T23:59:33.360Z,25.65
